Time;durP1;ratioP1;P1;durP2;ratioP2;P2;SDS_P1;SDS_P2;PMS_P1;PMS_P2;Temp;Humidity;BMP_temperature;BMP_pressure;BME280_temperature;BME280_humidity;BME280_pressure;Samples;Min_cycle;Max_cycle;Signal;HPM_P1;HPM_P2
2021/09/21 00:01:28;;;;;;;;;;;14.40;99.90;;;;;;5073463;28;19917;-82
2021/09/21 00:03:53;;;;;;;;;;;14.40;99.90;;;;;;5076955;28;19965;-82
2021/09/21 00:06:19;;;;;;;;;;;14.30;99.90;;;;;;5096427;28;20003;-82
2021/09/21 00:08:44;;;;;;;;;;;14.30;99.90;;;;;;5066848;28;20003;-82
2021/09/21 00:11:10;;;;;;;;;;;14.30;99.90;;;;;;5077363;28;19908;-82
2021/09/21 00:13:36;;;;;;;;;;;14.30;99.90;;;;;;5088207;28;20007;-82
2021/09/21 00:16:02;;;;;;;;;;;14.20;99.90;;;;;;5083968;28;19970;-82
2021/09/21 00:18:27;;;;;;;;;;;14.20;99.90;;;;;;5083772;28;19918;-82
2021/09/21 00:20:53;;;;;;;;;;;14.10;99.90;;;;;;5076649;28;19932;-82
2021/09/21 00:23:18;;;;;;;;;;;14.10;99.90;;;;;;5074628;28;19916;-83
2021/09/21 00:25:44;;;;;;;;;;;14.10;99.90;;;;;;5081922;28;19916;-82
2021/09/21 00:28:09;;;;;;;;;;;14.10;99.90;;;;;;5075402;28;20249;-82
2021/09/21 00:30:36;;;;;;;;;;;14.10;99.90;;;;;;5092682;28;19913;-82
2021/09/21 00:33:03;;;;;;;;;;;14.10;99.90;;;;;;5088061;28;19921;-82
2021/09/21 00:35:32;;;;;;;;;;;14.00;99.90;;;;;;5076763;28;20408;-82
2021/09/21 00:37:58;;;;;;;;;;;14.00;99.90;;;;;;5080553;28;19909;-82
2021/09/21 00:40:24;;;;;;;;;;;14.00;99.90;;;;;;5095163;28;20451;-82
2021/09/21 00:42:50;;;;;;;;;;;13.90;99.90;;;;;;5072057;28;19958;-82
2021/09/21 00:45:18;;;;;;;;;;;13.90;99.90;;;;;;5078914;28;19919;-82
2021/09/21 00:47:44;;;;;;;;;;;13.90;99.90;;;;;;5088143;28;20437;-82
2021/09/21 00:50:09;;;;;;;;;;;13.90;99.90;;;;;;5098846;28;19916;-82
2021/09/21 00:52:35;;;;;;;;;;;13.90;99.90;;;;;;5091038;28;19995;-82
2021/09/21 00:55:00;;;;;;;;;;;13.90;99.90;;;;;;5080520;28;19912;-82
2021/09/21 00:57:26;;;;;;;;;;;13.90;99.90;;;;;;5080302;28;19912;-82
2021/09/21 00:59:52;;;;;;;;;;;13.90;99.90;;;;;;5079455;28;20286;-82
2021/09/21 01:02:17;;;;;;;;;;;13.90;99.90;;;;;;5088156;28;19912;-82
2021/09/21 01:04:43;;;;;;;;;;;13.90;99.90;;;;;;5076245;28;19913;-82
2021/09/21 01:07:09;;;;;;;;;;;13.90;99.90;;;;;;5076068;28;19961;-82
2021/09/21 01:09:34;;;;;;;;;;;13.90;99.90;;;;;;5077498;28;19931;-82
2021/09/21 01:12:00;;;;;;;;;;;13.90;99.90;;;;;;5077047;28;19982;-82
2021/09/21 01:14:26;;;;;;;;;;;13.90;99.90;;;;;;5091584;28;19912;-82
2021/09/21 01:16:52;;;;;;;;;;;13.90;99.90;;;;;;5085356;28;20363;-82
2021/09/21 01:19:18;;;;;;;;;;;13.90;99.90;;;;;;5079008;28;20185;-82
2021/09/21 01:21:44;;;;;;;;;;;13.90;99.90;;;;;;5091952;28;19962;-82
2021/09/21 01:24:11;;;;;;;;;;;13.90;99.90;;;;;;5088930;28;19913;-82
2021/09/21 01:26:36;;;;;;;;;;;13.90;99.90;;;;;;5080316;28;20372;-82
2021/09/21 01:29:02;;;;;;;;;;;13.90;99.90;;;;;;5091649;28;19923;-82
2021/09/21 01:31:27;;;;;;;;;;;13.90;99.90;;;;;;5074118;28;20478;-82
2021/09/21 01:33:53;;;;;;;;;;;13.90;99.90;;;;;;5077732;28;19920;-82
2021/09/21 01:36:20;;;;;;;;;;;13.90;99.90;;;;;;5083326;28;19924;-82
2021/09/21 01:38:45;;;;;;;;;;;13.90;99.90;;;;;;5072476;28;19920;-82
2021/09/21 01:41:11;;;;;;;;;;;14.00;99.90;;;;;;5085133;28;20386;-82
2021/09/21 01:43:37;;;;;;;;;;;14.00;99.90;;;;;;5086592;28;20395;-82
2021/09/21 01:46:03;;;;;;;;;;;14.00;99.90;;;;;;5078477;28;19912;-82
2021/09/21 01:48:28;;;;;;;;;;;14.00;99.90;;;;;;5075353;28;19923;-82
2021/09/21 01:51:00;;;;;;;;;;;14.00;99.90;;;;;;5075987;28;20012;-82
2021/09/21 01:53:55;;;;;;;;;;;14.00;99.90;;;;;;5070179;28;19927;-82
2021/09/21 01:58:58;;;;;;;;;;;13.90;99.90;;;;;;5077348;28;20335;-82
2021/09/21 02:01:25;;;;;;;;;;;13.90;99.90;;;;;;5074836;28;19912;-82
2021/09/21 02:03:55;;;;;;;;;;;13.90;99.90;;;;;;5078543;28;19958;-82
2021/09/21 02:06:33;;;;;;;;;;;13.90;99.90;;;;;;5084572;28;19912;-82
2021/09/21 02:08:59;;;;;;;;;;;13.90;99.90;;;;;;5081427;28;20391;-82
2021/09/21 02:11:24;;;;;;;;;;;13.90;99.90;;;;;;5088001;28;19958;-82
2021/09/21 02:13:55;;;;;;;;;;;13.90;99.90;;;;;;5079377;28;19921;-82
2021/09/21 02:16:21;;;;;;;;;;;13.90;99.90;;;;;;5095880;28;19915;-82
2021/09/21 02:18:46;;;;;;;;;;;14.00;99.90;;;;;;5082720;28;19919;-82
2021/09/21 02:21:12;;;;;;;;;;;14.00;99.90;;;;;;5077155;28;19924;-82
2021/09/21 02:23:37;;;;;;;;;;;14.00;99.90;;;;;;5081246;28;19955;-82
2021/09/21 02:26:03;;;;;;;;;;;14.00;99.90;;;;;;5071851;28;20300;-82
2021/09/21 02:28:28;;;;;;;;;;;14.00;99.90;;;;;;5075923;28;19920;-82
2021/09/21 02:30:54;;;;;;;;;;;14.00;99.90;;;;;;5074288;28;20335;-82
2021/09/21 02:33:19;;;;;;;;;;;13.90;99.90;;;;;;5075873;28;20372;-82
2021/09/21 02:35:45;;;;;;;;;;;13.90;99.90;;;;;;5081731;28;19916;-82
2021/09/21 02:38:10;;;;;;;;;;;13.90;99.90;;;;;;5076564;28;19912;-82
2021/09/21 02:40:36;;;;;;;;;;;13.90;1.00;;;;;;5075119;28;19916;-82
2021/09/21 02:43:02;;;;;;;;;;;13.80;1.00;;;;;;5071737;28;20400;-82
2021/09/21 02:45:27;;;;;;;;;;;13.80;1.00;;;;;;5083555;28;19912;-82
2021/09/21 02:47:53;;;;;;;;;;;13.80;1.00;;;;;;5077044;28;19920;-82
2021/09/21 02:50:18;;;;;;;;;;;13.80;1.00;;;;;;5086841;28;19971;-82
2021/09/21 02:52:44;;;;;;;;;;;13.80;1.00;;;;;;5087361;28;19923;-82
2021/09/21 02:55:09;;;;;;;;;;;13.80;1.00;;;;;;5076961;28;19942;-82
2021/09/21 02:57:35;;;;;;;;;;;13.80;1.00;;;;;;5084853;28;19987;-82
2021/09/21 03:00:02;;;;;;;;;;;13.80;1.00;;;;;;5085969;28;19916;-82
2021/09/21 03:02:31;;;;;;;;;;;13.80;1.00;;;;;;5078961;28;19913;-82
2021/09/21 03:05:00;;;;;;;;;;;13.80;1.00;;;;;;5089909;28;19913;-82
2021/09/21 03:07:29;;;;;;;;;;;13.80;1.00;;;;;;5085386;28;19987;-82
2021/09/21 03:17:48;;;;;;;;;;;13.80;1.00;;;;;;5076152;28;19950;-82
2021/09/21 03:20:14;;;;;;;;;;;13.80;1.00;;;;;;5074646;28;20319;-82
2021/09/21 03:22:39;;;;;;;;;;;13.80;1.00;;;;;;5083005;28;20368;-82
2021/09/21 03:25:08;;;;;;;;;;;13.80;1.00;;;;;;5079353;28;20379;-82
2021/09/21 03:27:33;;;;;;;;;;;13.70;1.00;;;;;;5077212;28;19920;-82
2021/09/21 03:29:59;;;;;;;;;;;13.70;1.00;;;;;;5087451;28;19919;-82
2021/09/21 03:32:25;;;;;;;;;;;13.60;1.00;;;;;;5092216;28;19919;-82
2021/09/21 03:34:51;;;;;;;;;;;13.50;1.00;;;;;;5085930;28;19923;-82
2021/09/21 03:37:16;;;;;;;;;;;13.50;1.00;;;;;;5065045;28;19916;-82
2021/09/21 03:39:42;;;;;;;;;;;13.50;1.00;;;;;;5093479;28;19913;-82
2021/09/21 03:42:07;;;;;;;;;;;13.50;1.00;;;;;;5079858;28;19916;-82
2021/09/21 03:44:33;;;;;;;;;;;13.50;1.00;;;;;;5077884;28;20287;-82
2021/09/21 03:46:58;;;;;;;;;;;13.50;1.00;;;;;;5083005;28;19919;-82
2021/09/21 03:49:24;;;;;;;;;;;13.50;1.00;;;;;;5077738;28;19916;-82
2021/09/21 03:51:49;;;;;;;;;;;13.50;1.00;;;;;;5084994;28;19916;-82
2021/09/21 03:54:15;;;;;;;;;;;13.50;1.00;;;;;;5073580;28;19913;-82
2021/09/21 03:56:41;;;;;;;;;;;13.50;1.00;;;;;;5077855;28;19948;-82
2021/09/21 03:59:07;;;;;;;;;;;13.50;1.00;;;;;;5086577;28;19922;-82
2021/09/21 04:01:33;;;;;;;;;;;13.50;1.00;;;;;;5096056;28;19912;-84
2021/09/21 04:03:59;;;;;;;;;;;13.60;1.00;;;;;;5081811;28;19923;-82
2021/09/21 04:06:25;;;;;;;;;;;13.50;1.00;;;;;;5097216;28;19916;-82
2021/09/21 04:08:50;;;;;;;;;;;13.50;1.00;;;;;;5076404;28;19920;-82
2021/09/21 04:11:16;;;;;;;;;;;13.50;1.00;;;;;;5081520;28;19915;-82
2021/09/21 04:13:42;;;;;;;;;;;13.60;1.00;;;;;;5086932;28;19916;-82
2021/09/21 04:16:07;;;;;;;;;;;13.60;1.00;;;;;;5081015;28;19925;-82
2021/09/21 04:18:33;;;;;;;;;;;13.60;1.00;;;;;;5082398;28;20430;-82
2021/09/21 04:20:58;;;;;;;;;;;13.60;1.00;;;;;;5081736;28;20007;-82
2021/09/21 04:23:24;;;;;;;;;;;13.60;1.00;;;;;;5091043;28;19913;-82
2021/09/21 04:25:49;;;;;;;;;;;13.50;1.00;;;;;;5072213;28;19913;-82
2021/09/21 04:28:15;;;;;;;;;;;13.50;1.00;;;;;;5077354;28;19916;-83
2021/09/21 04:30:42;;;;;;;;;;;13.50;1.00;;;;;;5074467;28;19916;-82
2021/09/21 04:33:08;;;;;;;;;;;13.50;1.00;;;;;;5086950;28;19924;-82
2021/09/21 04:35:33;;;;;;;;;;;13.50;1.00;;;;;;5090695;28;19977;-82
2021/09/21 04:37:59;;;;;;;;;;;13.40;1.00;;;;;;5096937;28;19912;-82
2021/09/21 04:40:24;;;;;;;;;;;13.40;1.00;;;;;;5087673;28;19943;-82
2021/09/21 04:42:50;;;;;;;;;;;13.40;1.00;;;;;;5083362;28;19912;-82
2021/09/21 04:45:15;;;;;;;;;;;13.40;1.00;;;;;;5085051;28;19919;-82
2021/09/21 04:47:41;;;;;;;;;;;13.30;1.00;;;;;;5087445;28;19920;-82
2021/09/21 04:50:06;;;;;;;;;;;13.30;1.00;;;;;;5080884;28;19920;-82
2021/09/21 04:52:33;;;;;;;;;;;13.30;1.00;;;;;;5078658;28;19980;-82
2021/09/21 04:54:58;;;;;;;;;;;13.30;1.00;;;;;;5077603;28;19953;-82
2021/09/21 04:57:24;;;;;;;;;;;13.30;1.00;;;;;;5085094;28;20608;-82
2021/09/21 04:59:49;;;;;;;;;;;13.30;1.00;;;;;;5087027;28;19916;-82
2021/09/21 05:02:15;;;;;;;;;;;13.30;1.00;;;;;;5085839;28;19913;-82
2021/09/21 05:04:40;;;;;;;;;;;13.30;1.00;;;;;;5083586;28;19913;-82
2021/09/21 05:07:06;;;;;;;;;;;13.30;1.00;;;;;;5077191;28;19916;-82
2021/09/21 05:09:31;;;;;;;;;;;13.30;1.00;;;;;;5077384;28;19934;-82
2021/09/21 05:11:56;;;;;;;;;;;13.30;1.00;;;;;;5077046;28;19920;-82
2021/09/21 05:14:22;;;;;;;;;;;13.30;1.00;;;;;;5088231;28;19916;-82
2021/09/21 05:16:47;;;;;;;;;;;13.30;1.00;;;;;;5071816;28;19988;-82
2021/09/21 05:19:13;;;;;;;;;;;13.30;1.00;;;;;;5088379;28;19912;-82
2021/09/21 05:21:39;;;;;;;;;;;13.30;1.00;;;;;;5095308;28;19931;-82
2021/09/21 05:24:05;;;;;;;;;;;13.20;1.00;;;;;;5096434;28;19908;-82
2021/09/21 05:26:30;;;;;;;;;;;13.20;1.00;;;;;;5080904;28;19916;-82
2021/09/21 05:28:56;;;;;;;;;;;13.10;1.00;;;;;;5076747;28;19999;-82
2021/09/21 05:31:21;;;;;;;;;;;13.20;1.00;;;;;;5074223;28;20283;-82
2021/09/21 05:33:47;;;;;;;;;;;13.20;21.80;;;;;;5071064;28;19912;-82
2021/09/21 05:36:13;;;;;;;;;;;13.20;47.60;;;;;;5075873;28;19916;-82
2021/09/21 05:38:38;;;;;;;;;;;13.20;66.90;;;;;;5076874;28;20426;-81
2021/09/21 05:41:04;;;;;;;;;;;13.20;34.60;;;;;;5083812;28;19912;-81
2021/09/21 05:43:30;;;;;;;;;;;13.20;38.10;;;;;;5077199;28;19995;-81
2021/09/21 05:45:55;;;;;;;;;;;13.20;24.20;;;;;;5076780;28;19912;-81
2021/09/21 05:50:49;;;;;;;;;;;13.20;1.00;;;;;;5053750;28;19936;-81
2021/09/21 05:53:14;;;;;;;;;;;13.30;1.00;;;;;;5041996;28;19909;-81
2021/09/21 05:55:40;;;;;;;;;;;13.40;1.00;;;;;;5037214;28;19921;-81
2021/09/21 05:58:05;;;;;;;;;;;13.90;1.00;;;;;;5041005;28;19919;-81
2021/09/21 06:00:32;;;;;;;;;;;14.90;1.00;;;;;;5056479;28;19920;-82
2021/09/21 06:02:57;;;;;;;;;;;17.30;99.90;;;;;;5054680;28;19912;-81
2021/09/21 06:05:23;;;;;;;;;;;19.80;99.90;;;;;;5055249;28;19913;-81
2021/09/21 06:07:49;;;;;;;;;;;22.10;99.90;;;;;;5043255;28;19905;-82
2021/09/21 06:10:16;;;;;;;;;;;23.70;99.90;;;;;;5052065;28;19920;-81
2021/09/21 06:12:42;;;;;;;;;;;24.30;99.90;;;;;;5059559;28;20270;-81
2021/09/21 06:15:08;;;;;;;;;;;24.10;99.90;;;;;;5060677;28;19919;-81
2021/09/21 06:17:33;;;;;;;;;;;25.70;99.90;;;;;;5049718;28;19927;-82
2021/09/21 06:19:59;;;;;;;;;;;27.40;99.90;;;;;;5048601;28;19913;-82
2021/09/21 06:22:24;;;;;;;;;;;28.50;99.90;;;;;;5060006;28;19909;-82
2021/09/21 06:24:50;;;;;;;;;;;29.90;99.90;;;;;;5056769;28;19943;-81
2021/09/21 06:27:15;;;;;;;;;;;31.20;99.90;;;;;;5060063;28;19936;-82
2021/09/21 06:29:40;;;;;;;;;;;32.40;99.90;;;;;;5045904;28;19921;-81
2021/09/21 06:32:06;;;;;;;;;;;33.60;99.90;;;;;;5055327;28;19966;-81
2021/09/21 06:34:31;;;;;;;;;;;34.70;99.90;;;;;;5052751;28;20003;-83
2021/09/21 06:36:57;;;;;;;;;;;35.50;99.90;;;;;;5052682;28;20357;-82
2021/09/21 06:39:22;;;;;;;;;;;36.40;99.90;;;;;;5044275;28;19913;-83
2021/09/21 06:41:48;;;;;;;;;;;37.30;99.90;;;;;;5052902;28;19948;-83
2021/09/21 06:44:13;;;;;;;;;;;37.90;99.90;;;;;;5057837;28;19917;-82
2021/09/21 06:46:39;;;;;;;;;;;38.10;99.90;;;;;;5056209;28;19963;-83
2021/09/21 06:49:04;;;;;;;;;;;38.00;99.90;;;;;;5058182;28;19921;-82
2021/09/21 06:51:31;;;;;;;;;;;37.60;99.90;;;;;;5051134;28;19920;-82
2021/09/21 06:53:57;;;;;;;;;;;36.60;99.90;;;;;;5059507;28;19935;-82
2021/09/21 06:56:27;;;;;;;;;;;35.70;99.90;;;;;;5048184;28;20373;-82
2021/09/21 06:58:53;;;;;;;;;;;35.70;99.90;;;;;;5040734;28;19913;-81
2021/09/21 07:01:18;;;;;;;;;;;35.30;99.90;;;;;;5057949;28;19935;-83
2021/09/21 07:03:44;;;;;;;;;;;35.30;99.90;;;;;;5057940;28;19916;-82
2021/09/21 07:06:10;;;;;;;;;;;35.70;99.90;;;;;;5040345;28;19983;-82
2021/09/21 07:08:36;;;;;;;;;;;36.80;99.90;;;;;;5050079;28;19916;-82
2021/09/21 07:11:01;;;;;;;;;;;37.90;99.90;;;;;;5041208;28;19977;-82
2021/09/21 07:13:27;;;;;;;;;;;39.10;99.90;;;;;;5041141;28;19928;-82
2021/09/21 07:15:52;;;;;;;;;;;40.20;99.90;;;;;;5053011;28;19917;-82
2021/09/21 07:18:18;;;;;;;;;;;40.50;99.90;;;;;;5046290;28;19967;-82
2021/09/21 07:20:43;;;;;;;;;;;40.80;99.90;;;;;;5041645;28;19979;-82
2021/09/21 07:23:09;;;;;;;;;;;40.00;99.90;;;;;;5051959;28;19909;-82
2021/09/21 07:25:34;;;;;;;;;;;39.60;99.90;;;;;;5052917;28;19913;-82
2021/09/21 07:28:02;;;;;;;;;;;39.50;99.90;;;;;;5054620;28;20026;-82
2021/09/21 07:30:29;;;;;;;;;;;39.40;99.90;;;;;;5057808;28;19913;-82
2021/09/21 07:32:54;;;;;;;;;;;40.30;99.90;;;;;;5050136;28;19913;-82
2021/09/21 07:35:19;;;;;;;;;;;41.30;99.90;;;;;;5060353;28;20308;-82
2021/09/21 07:37:45;;;;;;;;;;;41.30;99.90;;;;;;5063746;28;19909;-82
2021/09/21 07:40:11;;;;;;;;;;;41.70;99.90;;;;;;5060394;28;19909;-82
2021/09/21 07:42:37;;;;;;;;;;;42.20;99.90;;;;;;5051099;28;19913;-82
2021/09/21 07:45:04;;;;;;;;;;;42.50;99.90;;;;;;5047250;28;19983;-82
2021/09/21 07:47:29;;;;;;;;;;;42.90;99.90;;;;;;5062968;28;19927;-82
2021/09/21 07:49:55;;;;;;;;;;;43.40;99.90;;;;;;5062967;28;19917;-82
2021/09/21 07:52:20;;;;;;;;;;;43.20;99.90;;;;;;5063608;28;19992;-82
2021/09/21 07:54:45;;;;;;;;;;;43.00;99.90;;;;;;5055057;28;19917;-83
2021/09/21 07:57:11;;;;;;;;;;;43.10;99.90;;;;;;5042668;28;19914;-82
2021/09/21 07:59:39;;;;;;;;;;;42.90;99.90;;;;;;5056424;28;19913;-81
2021/09/21 08:02:07;;;;;;;;;;;42.60;99.90;;;;;;5056740;28;19909;-81
2021/09/21 08:04:33;;;;;;;;;;;42.30;99.90;;;;;;5043403;28;19920;-81
2021/09/21 08:06:58;;;;;;;;;;;41.90;99.90;;;;;;5045709;28;19936;-80
2021/09/21 08:09:24;;;;;;;;;;;41.30;99.90;;;;;;5052611;28;19913;-80
2021/09/21 08:11:49;;;;;;;;;;;41.00;99.90;;;;;;5058129;28;19999;-81
2021/09/21 08:14:15;;;;;;;;;;;41.20;99.90;;;;;;5054644;28;19913;-80
2021/09/21 08:16:40;;;;;;;;;;;41.30;99.90;;;;;;5045215;28;19917;-81
2021/09/21 08:19:05;;;;;;;;;;;41.20;99.90;;;;;;5047669;28;19921;-81
2021/09/21 08:21:31;;;;;;;;;;;41.60;99.90;;;;;;5041636;28;19909;-82
2021/09/21 08:23:56;;;;;;;;;;;42.10;99.90;;;;;;5068446;28;19921;-81
2021/09/21 08:26:22;;;;;;;;;;;42.30;99.90;;;;;;5051551;28;19917;-81
2021/09/21 08:28:48;;;;;;;;;;;42.70;99.90;;;;;;5057883;28;19935;-81
2021/09/21 08:31:13;;;;;;;;;;;42.80;99.90;;;;;;5056727;28;19917;-81
2021/09/21 08:33:39;;;;;;;;;;;42.80;99.90;;;;;;5046087;28;19955;-81
2021/09/21 08:36:04;;;;;;;;;;;42.90;99.90;;;;;;5051374;28;19914;-80
2021/09/21 08:38:30;;;;;;;;;;;42.90;99.90;;;;;;5061577;28;19931;-80
2021/09/21 08:40:55;;;;;;;;;;;43.20;99.90;;;;;;5040627;28;19954;-81
2021/09/21 08:43:21;;;;;;;;;;;43.00;99.90;;;;;;5048285;28;19909;-80
2021/09/21 08:45:47;;;;;;;;;;;42.40;99.90;;;;;;5048193;28;20356;-80
2021/09/21 08:48:12;;;;;;;;;;;41.50;99.90;;;;;;5044698;28;19913;-80
2021/09/21 08:50:38;;;;;;;;;;;41.10;99.90;;;;;;5057646;28;19917;-80
2021/09/21 08:53:03;;;;;;;;;;;41.30;99.90;;;;;;5048466;28;19925;-80
2021/09/21 08:55:29;;;;;;;;;;;41.30;99.90;;;;;;5043596;28;19924;-81
2021/09/21 08:57:55;;;;;;;;;;;41.60;99.90;;;;;;5053695;28;20039;-81
2021/09/21 09:00:25;;;;;;;;;;;41.80;99.90;;;;;;5054046;28;19913;-81
2021/09/21 09:03:01;;;;;;;;;;;41.70;99.90;;;;;;5055418;28;20035;-81
2021/09/21 09:05:27;;;;;;;;;;;41.40;99.90;;;;;;5052599;28;19909;-81
2021/09/21 09:07:53;;;;;;;;;;;41.30;99.90;;;;;;5056430;28;20347;-81
2021/09/21 09:10:20;;;;;;;;;;;40.80;99.90;;;;;;5038711;28;19916;-81
2021/09/21 09:12:46;;;;;;;;;;;39.70;99.90;;;;;;5041042;28;20403;-80
2021/09/21 09:15:13;;;;;;;;;;;39.00;99.90;;;;;;5041751;28;19913;-80
2021/09/21 09:17:40;;;;;;;;;;;39.00;99.90;;;;;;5058692;28;19966;-80
2021/09/21 09:20:06;;;;;;;;;;;39.60;99.90;;;;;;5058733;28;19909;-80
2021/09/21 09:22:32;;;;;;;;;;;40.10;99.90;;;;;;5053765;28;19920;-81
2021/09/21 09:24:59;;;;;;;;;;;40.60;99.90;;;;;;5051694;28;19913;-81
2021/09/21 09:27:46;;;;;;;;;;;40.90;99.90;;;;;;5046762;28;19928;-80
2021/09/21 09:30:15;;;;;;;;;;;41.00;99.90;;;;;;5039764;28;19956;-81
2021/09/21 09:32:52;;;;;;;;;;;40.80;99.90;;;;;;5038739;28;20346;-79
2021/09/21 09:35:21;;;;;;;;;;;40.10;99.90;;;;;;5046728;28;20388;-80
2021/09/21 09:37:47;;;;;;;;;;;39.60;99.90;;;;;;5054021;28;20400;-80
2021/09/21 09:40:12;;;;;;;;;;;39.40;99.90;;;;;;5058063;28;19917;-81
2021/09/21 09:42:41;;;;;;;;;;;39.50;99.90;;;;;;5057617;28;20008;-80
2021/09/21 09:45:07;;;;;;;;;;;39.50;99.90;;;;;;5050404;28;19913;-82
2021/09/21 09:47:43;;;;;;;;;;;39.40;99.90;;;;;;5054620;28;19973;-80
2021/09/21 09:50:09;;;;;;;;;;;39.60;99.90;;;;;;5058872;28;19917;-81
2021/09/21 09:52:36;;;;;;;;;;;39.90;99.90;;;;;;5052866;28;19932;-80
2021/09/21 09:55:02;;;;;;;;;;;39.70;99.90;;;;;;5045341;28;19917;-80
2021/09/21 09:57:29;;;;;;;;;;;39.40;99.90;;;;;;5037905;28;19935;-80
2021/09/21 09:59:55;;;;;;;;;;;39.60;99.90;;;;;;5042815;28;19915;-80
2021/09/21 10:02:21;;;;;;;;;;;39.40;99.90;;;;;;5045426;28;19995;-80
2021/09/21 10:04:47;;;;;;;;;;;39.60;99.90;;;;;;5051406;28;19913;-81
2021/09/21 10:07:13;;;;;;;;;;;40.30;99.90;;;;;;5049693;28;19943;-79
2021/09/21 10:09:38;;;;;;;;;;;41.00;99.90;;;;;;5058472;28;20353;-81
2021/09/21 10:12:04;;;;;;;;;;;41.40;99.90;;;;;;5057262;28;19913;-80
2021/09/21 10:14:30;;;;;;;;;;;41.00;99.90;;;;;;5043169;28;19995;-83
2021/09/21 10:16:59;;;;;;;;;;;40.40;99.90;;;;;;5043273;28;19948;-80
2021/09/21 10:19:25;;;;;;;;;;;40.30;99.90;;;;;;5054923;28;19987;-80
2021/09/21 10:21:53;;;;;;;;;;;40.30;99.90;;;;;;5040850;28;19997;-80
2021/09/21 10:24:29;;;;;;;;;;;40.30;99.90;;;;;;5042457;28;19961;-80
2021/09/21 10:26:59;;;;;;;;;;;40.10;99.90;;;;;;5054141;28;19917;-80
2021/09/21 10:29:28;;;;;;;;;;;39.70;99.90;;;;;;5055402;28;19959;-80
2021/09/21 10:31:57;;;;;;;;;;;40.00;99.90;;;;;;5049295;28;20002;-80
2021/09/21 10:34:23;;;;;;;;;;;40.30;99.90;;;;;;5054827;28;20074;-80
2021/09/21 10:36:49;;;;;;;;;;;40.70;99.90;;;;;;5049246;28;19934;-81
2021/09/21 10:39:16;;;;;;;;;;;40.90;99.90;;;;;;5047051;28;20000;-79
2021/09/21 10:41:49;;;;;;;;;;;40.80;99.90;;;;;;5052111;28;19917;-80
2021/09/21 10:44:15;;;;;;;;;;;40.60;99.90;;;;;;5041817;28;19913;-80
2021/09/21 10:46:48;;;;;;;;;;;40.30;99.90;;;;;;5041132;28;19987;-80
2021/09/21 10:49:24;;;;;;;;;;;40.00;99.90;;;;;;5056723;28;19962;-80
2021/09/21 10:51:50;;;;;;;;;;;39.50;99.90;;;;;;5049747;28;19920;-80
2021/09/21 10:54:15;;;;;;;;;;;39.40;99.90;;;;;;5052970;28;19913;-80
2021/09/21 10:56:41;;;;;;;;;;;39.50;99.90;;;;;;5053153;28;19913;-80
2021/09/21 10:59:13;;;;;;;;;;;39.60;99.90;;;;;;5052505;28;19920;-80
2021/09/21 11:01:45;;;;;;;;;;;39.80;99.90;;;;;;5054012;28;19994;-80
2021/09/21 11:04:11;;;;;;;;;;;39.50;99.90;;;;;;5047636;28;19913;-80
2021/09/21 11:06:42;;;;;;;;;;;39.50;99.90;;;;;;5044950;28;20360;-80
2021/09/21 11:09:08;;;;;;;;;;;38.90;99.90;;;;;;5052388;28;20423;-80
2021/09/21 11:11:34;;;;;;;;;;;38.30;99.90;;;;;;5043465;28;19917;-80
2021/09/21 11:13:59;;;;;;;;;;;37.50;99.90;;;;;;5050638;28;20305;-80
2021/09/21 11:16:25;;;;;;;;;;;37.10;99.90;;;;;;5049348;28;19913;-80
2021/09/21 11:18:53;;;;;;;;;;;37.20;99.90;;;;;;5053165;28;20487;-80
2021/09/21 11:21:19;;;;;;;;;;;37.00;99.90;;;;;;5043434;28;19925;-80
2021/09/21 11:23:44;;;;;;;;;;;37.20;99.90;;;;;;5051159;28;19913;-80
2021/09/21 11:26:11;;;;;;;;;;;37.20;99.90;;;;;;5039073;28;20300;-79
2021/09/21 11:28:38;;;;;;;;;;;37.00;99.90;;;;;;5049841;28;19913;-80
2021/09/21 11:31:04;;;;;;;;;;;37.10;99.90;;;;;;5045371;28;19916;-78
2021/09/21 11:33:33;;;;;;;;;;;37.30;99.90;;;;;;5047649;28;19913;-78
2021/09/21 11:36:04;;;;;;;;;;;37.10;99.90;;;;;;5048385;28;19917;-78
2021/09/21 11:38:31;;;;;;;;;;;36.40;99.90;;;;;;5048844;28;19920;-80
2021/09/21 11:40:57;;;;;;;;;;;36.30;99.90;;;;;;5035149;28;19971;-79
2021/09/21 11:43:24;;;;;;;;;;;36.10;99.90;;;;;;5035507;28;19913;-78
2021/09/21 11:45:51;;;;;;;;;;;36.10;99.90;;;;;;5044598;28;19916;-80
2021/09/21 11:48:16;;;;;;;;;;;36.00;99.90;;;;;;5057982;28;19909;-80
2021/09/21 11:50:43;;;;;;;;;;;36.10;99.90;;;;;;5055574;28;19908;-80
2021/09/21 11:53:13;;;;;;;;;;;36.50;99.90;;;;;;5037220;28;19909;-80
2021/09/21 11:55:39;;;;;;;;;;;36.60;99.90;;;;;;5051232;28;20015;-80
2021/09/21 11:58:06;;;;;;;;;;;36.70;99.90;;;;;;5057528;28;19909;-80
2021/09/21 12:00:33;;;;;;;;;;;36.70;99.90;;;;;;5044098;28;20000;-80
2021/09/21 12:03:02;;;;;;;;;;;36.70;99.90;;;;;;5038558;28;19913;-80
2021/09/21 12:05:29;;;;;;;;;;;35.50;99.90;;;;;;5048391;28;19992;-79
2021/09/21 12:07:55;;;;;;;;;;;34.70;99.90;;;;;;5054618;28;19916;-80
2021/09/21 12:10:23;;;;;;;;;;;34.30;99.90;;;;;;5039908;28;19968;-80
2021/09/21 12:13:04;;;;;;;;;;;34.00;99.90;;;;;;5046214;28;19935;-80
2021/09/21 12:15:30;;;;;;;;;;;33.50;99.90;;;;;;5049199;28;19917;-79
2021/09/21 12:17:56;;;;;;;;;;;33.50;99.90;;;;;;5037906;28;19951;-79
2021/09/21 12:20:26;;;;;;;;;;;33.10;99.90;;;;;;5053331;28;19917;-79
2021/09/21 12:22:53;;;;;;;;;;;33.00;99.90;;;;;;5057732;28;19947;-80
2021/09/21 12:25:19;;;;;;;;;;;33.30;99.90;;;;;;5050417;28;19987;-79
2021/09/21 12:27:45;;;;;;;;;;;32.90;99.90;;;;;;5041317;28;19916;-79
2021/09/21 12:30:11;;;;;;;;;;;32.40;99.90;;;;;;5047723;28;20003;-79
2021/09/21 12:32:36;;;;;;;;;;;32.20;99.90;;;;;;5059506;28;19919;-80
2021/09/21 12:35:09;;;;;;;;;;;32.10;99.90;;;;;;5058210;28;19913;-79
2021/09/21 12:37:42;;;;;;;;;;;31.40;99.90;;;;;;5040739;28;19913;-79
2021/09/21 12:40:07;;;;;;;;;;;30.90;99.90;;;;;;5040500;28;19909;-79
2021/09/21 12:42:34;;;;;;;;;;;30.30;99.90;;;;;;5061105;28;19919;-79
2021/09/21 12:45:07;;;;;;;;;;;30.30;99.90;;;;;;5060588;28;19909;-79
2021/09/21 12:47:33;;;;;;;;;;;30.20;99.90;;;;;;5040380;28;20447;-79
2021/09/21 12:50:02;;;;;;;;;;;30.30;99.90;;;;;;5040218;28;19981;-80
2021/09/21 12:52:29;;;;;;;;;;;30.50;99.90;;;;;;5047131;28;19913;-79
2021/09/21 12:54:54;;;;;;;;;;;30.80;99.90;;;;;;5039855;28;19909;-80
2021/09/21 12:57:21;;;;;;;;;;;31.20;99.90;;;;;;5038651;28;19916;-79
2021/09/21 12:59:50;;;;;;;;;;;31.60;99.90;;;;;;5056405;28;19962;-79
2021/09/21 13:02:16;;;;;;;;;;;31.80;99.90;;;;;;5055541;28;19973;-79
2021/09/21 13:04:41;;;;;;;;;;;32.00;99.90;;;;;;5060767;28;19947;-79
2021/09/21 13:07:07;;;;;;;;;;;32.10;99.90;;;;;;5057217;28;19917;-79
2021/09/21 13:09:32;;;;;;;;;;;32.40;99.90;;;;;;5051798;28;19916;-79
2021/09/21 13:11:58;;;;;;;;;;;32.40;99.90;;;;;;5041737;28;19909;-79
2021/09/21 13:14:23;;;;;;;;;;;32.30;99.90;;;;;;5058971;28;19909;-80
2021/09/21 13:16:49;;;;;;;;;;;32.00;99.90;;;;;;5059459;28;19984;-79
2021/09/21 13:19:14;;;;;;;;;;;31.90;99.90;;;;;;5050084;28;20004;-79
2021/09/21 13:21:39;;;;;;;;;;;31.40;99.90;;;;;;5040147;28;20630;-79
2021/09/21 13:24:05;;;;;;;;;;;30.70;99.90;;;;;;5038485;28;19909;-79
2021/09/21 13:26:30;;;;;;;;;;;30.50;99.90;;;;;;5055559;28;19917;-79
2021/09/21 13:28:56;;;;;;;;;;;30.70;99.90;;;;;;5055302;28;19920;-79
2021/09/21 13:31:22;;;;;;;;;;;30.90;99.90;;;;;;5045254;28;19913;-79
2021/09/21 13:33:48;;;;;;;;;;;31.20;99.90;;;;;;5042167;28;19913;-80
2021/09/21 13:36:14;;;;;;;;;;;31.10;99.90;;;;;;5058035;28;19909;-80
2021/09/21 13:38:39;;;;;;;;;;;30.90;99.90;;;;;;5057550;28;19915;-79
2021/09/21 13:41:05;;;;;;;;;;;30.70;99.90;;;;;;5051351;28;19923;-79
2021/09/21 13:43:30;;;;;;;;;;;30.60;99.90;;;;;;5039358;28;19918;-79
2021/09/21 13:45:57;;;;;;;;;;;30.50;99.90;;;;;;5039387;28;19913;-79
2021/09/21 13:48:22;;;;;;;;;;;30.40;99.90;;;;;;5057656;28;19916;-80
2021/09/21 13:50:48;;;;;;;;;;;30.10;99.90;;;;;;5047968;28;19917;-79
2021/09/21 13:53:13;;;;;;;;;;;29.70;99.90;;;;;;5044416;28;19913;-79
2021/09/21 13:55:39;;;;;;;;;;;29.60;99.90;;;;;;5039521;28;19913;-79
2021/09/21 13:58:04;;;;;;;;;;;29.70;99.90;;;;;;5038748;28;19963;-79
2021/09/21 14:00:30;;;;;;;;;;;30.00;99.90;;;;;;5042427;28;20377;-79
2021/09/21 14:02:55;;;;;;;;;;;30.30;99.90;;;;;;5052196;28;20000;-79
2021/09/21 14:05:21;;;;;;;;;;;30.50;99.90;;;;;;5038197;28;19917;-79
2021/09/21 14:07:47;;;;;;;;;;;30.50;99.90;;;;;;5040812;28;19917;-79
2021/09/21 14:10:13;;;;;;;;;;;30.50;99.90;;;;;;5053131;28;19917;-79
2021/09/21 14:12:39;;;;;;;;;;;30.50;99.90;;;;;;5056628;28;19912;-79
2021/09/21 14:15:06;;;;;;;;;;;30.50;99.90;;;;;;5056483;28;19932;-79
2021/09/21 14:17:50;;;;;;;;;;;30.40;99.90;;;;;;5042040;28;19909;-79
2021/09/21 14:20:34;;;;;;;;;;;30.30;99.90;;;;;;5038456;28;19909;-79
2021/09/21 14:23:18;;;;;;;;;;;30.10;99.90;;;;;;5049247;28;19928;-79
2021/09/21 14:26:02;;;;;;;;;;;29.90;99.90;;;;;;5038140;28;19913;-79
2021/09/21 14:28:47;;;;;;;;;;;29.60;99.90;;;;;;5037741;28;20151;-79